createdAt,value
2023-04-09T00:01:48.328Z,11.97
2023-04-09T00:12:19.959Z,11.50
2023-04-09T00:17:21.657Z,11.37
2023-04-09T00:22:23.228Z,11.43
2023-04-09T00:27:24.830Z,12.00
2023-04-09T00:32:26.671Z,11.50
2023-04-09T00:37:28.270Z,9.80
2023-04-09T00:42:36.312Z,10.27
2023-04-09T00:47:38.661Z,9.93
2023-04-09T00:52:40.347Z,9.80
2023-04-09T00:57:42.089Z,9.70
2023-04-09T01:02:44.229Z,9.10
2023-04-09T01:07:56.198Z,9.93
2023-04-09T01:13:01.219Z,9.13
2023-04-09T01:18:07.596Z,10.53
2023-04-09T01:23:19.938Z,9.73
2023-04-09T01:28:32.448Z,9.80
2023-04-09T01:33:34.442Z,9.83
2023-04-09T01:38:37.164Z,10.07
2023-04-09T01:43:38.867Z,9.30
2023-04-09T01:48:40.617Z,9.20
2023-04-09T01:53:42.449Z,9.30
2023-04-09T01:58:44.301Z,9.40
2023-04-09T02:03:54.099Z,9.70
2023-04-09T02:08:58.871Z,8.27
2023-04-09T02:14:01.180Z,10.13
2023-04-09T02:19:03.009Z,8.53
2023-04-09T02:24:04.749Z,8.83
2023-04-09T02:29:06.416Z,8.37
2023-04-09T02:34:08.908Z,8.83
2023-04-09T02:39:10.573Z,8.57
2023-04-09T02:44:38.180Z,8.77
2023-04-09T02:49:40.192Z,9.40
2023-04-09T02:54:41.925Z,8.17
2023-04-09T02:59:43.674Z,8.47
2023-04-09T03:04:45.950Z,9.97
2023-04-09T03:09:47.522Z,9.57
2023-04-09T03:14:49.171Z,9.00
2023-04-09T03:19:50.737Z,10.10
2023-04-09T03:24:53.042Z,9.43
2023-04-09T03:29:57.854Z,8.90
2023-04-09T03:35:07.602Z,8.50
2023-04-09T03:40:10.122Z,8.40
2023-04-09T03:45:11.931Z,7.97
2023-04-09T03:50:17.850Z,8.67
2023-04-09T03:55:24.227Z,7.77
2023-04-09T04:00:26.829Z,8.00
2023-04-09T04:05:48.162Z,7.77
2023-04-09T04:10:51.546Z,7.47
2023-04-09T04:15:54.981Z,6.80
2023-04-09T04:20:58.298Z,7.43
2023-04-09T04:26:00.545Z,7.03
2023-04-09T04:31:11.287Z,8.17
2023-04-09T04:36:14.160Z,7.07
2023-04-09T04:41:20.820Z,7.07
2023-04-09T04:46:29.097Z,7.80
2023-04-09T04:51:32.329Z,6.63
2023-04-09T04:56:42.862Z,6.60
2023-04-09T05:02:06.022Z,7.50
2023-04-09T05:07:15.528Z,6.73
2023-04-09T05:12:26.097Z,6.13
2023-04-09T05:17:28.984Z,6.57
2023-04-09T05:22:30.676Z,6.40
2023-04-09T05:27:33.079Z,7.40
2023-04-09T05:32:37.105Z,6.57
2023-04-09T05:37:39.675Z,6.53
2023-04-09T05:42:41.568Z,6.27
2023-04-09T05:47:49.197Z,6.60
2023-04-09T05:52:57.128Z,6.17
2023-04-09T05:58:06.023Z,6.17
2023-04-09T06:03:09.565Z,6.63
2023-04-09T06:08:11.409Z,6.20
2023-04-09T06:13:13.012Z,6.23
2023-04-09T06:18:14.674Z,5.60
2023-04-09T06:23:16.336Z,5.50
2023-04-09T06:28:17.837Z,5.70
2023-04-09T06:33:21.063Z,5.57
2023-04-09T06:38:22.671Z,5.37
2023-04-09T06:43:24.269Z,5.87
2023-04-09T06:48:27.502Z,4.77
2023-04-09T06:53:29.106Z,5.60
2023-04-09T06:58:30.717Z,5.23
2023-04-09T07:03:32.459Z,5.47
2023-04-09T07:08:34.092Z,4.63
2023-04-09T07:13:35.859Z,4.83
2023-04-09T07:18:37.525Z,4.70
2023-04-09T07:23:39.112Z,5.10
2023-04-09T07:28:42.212Z,5.00
2023-04-09T07:33:43.875Z,5.20
2023-04-09T07:38:45.523Z,5.63
2023-04-09T07:43:47.164Z,5.27
2023-04-09T07:48:50.057Z,5.97
2023-04-09T07:53:52.010Z,5.40
2023-04-09T07:58:54.516Z,5.53
2023-04-09T08:03:56.338Z,4.77
2023-04-09T08:08:57.928Z,5.60
2023-04-09T08:14:02.818Z,4.57
2023-04-09T08:19:04.448Z,5.27
2023-04-09T08:24:07.184Z,4.47
2023-04-09T08:29:10.243Z,4.50
2023-04-09T08:34:13.081Z,3.90
2023-04-09T08:39:16.042Z,4.03
2023-04-09T08:44:18.303Z,3.87
2023-04-09T08:49:21.123Z,4.20
2023-04-09T08:54:23.453Z,4.13
2023-04-09T08:59:25.089Z,4.63
2023-04-09T09:04:44.023Z,5.03
2023-04-09T09:09:53.721Z,5.10
2023-04-09T09:14:55.436Z,5.30
2023-04-09T09:19:57.813Z,6.10
2023-04-09T09:24:59.417Z,5.37
2023-04-09T09:30:01.463Z,5.50
2023-04-09T09:35:05.049Z,5.97
2023-04-09T09:40:07.799Z,5.10
2023-04-09T09:45:19.418Z,4.30
2023-04-09T09:50:24.161Z,4.97
2023-04-09T09:55:27.917Z,5.33
2023-04-09T10:00:32.281Z,4.67
2023-04-09T10:05:36.272Z,4.40
2023-04-09T10:10:39.320Z,5.17
2023-04-09T10:15:43.128Z,4.77
2023-04-09T10:20:59.854Z,4.67
2023-04-09T10:26:01.369Z,3.97
2023-04-09T10:31:04.675Z,4.90
2023-04-09T10:36:10.335Z,4.40
2023-04-09T10:41:16.668Z,5.00
2023-04-09T10:46:41.012Z,4.53
2023-04-09T10:51:48.625Z,4.00
2023-04-09T10:57:08.790Z,5.03
2023-04-09T11:02:44.719Z,4.57
2023-04-09T11:08:07.781Z,4.27
2023-04-09T11:13:13.577Z,3.63
2023-04-09T11:18:19.750Z,4.23
2023-04-09T11:23:21.531Z,4.17
2023-04-09T11:28:23.853Z,3.43
2023-04-09T11:33:32.193Z,3.40
2023-04-09T11:38:33.922Z,3.63
2023-04-09T11:43:36.506Z,4.57
2023-04-09T11:48:38.150Z,3.50
2023-04-09T11:53:40.669Z,3.80
2023-04-09T11:58:46.990Z,4.03
2023-04-09T12:03:55.587Z,3.73
2023-04-09T12:08:58.972Z,3.60
2023-04-09T12:14:05.068Z,3.60
2023-04-09T12:19:07.873Z,3.50
2023-04-09T12:24:09.421Z,3.90
2023-04-09T12:29:11.350Z,3.70
2023-04-09T12:34:13.475Z,3.50
2023-04-09T12:39:15.559Z,3.60
2023-04-09T12:44:17.086Z,3.27
2023-04-09T12:49:19.969Z,3.83
2023-04-09T12:54:21.687Z,3.47
2023-04-09T12:59:23.285Z,4.03
2023-04-09T13:04:24.880Z,3.67
2023-04-09T13:09:27.772Z,3.50
2023-04-09T13:14:29.379Z,3.20
2023-04-09T13:19:31.201Z,3.53
2023-04-09T13:24:32.747Z,3.43
2023-04-09T13:29:34.350Z,3.20
2023-04-09T13:34:35.900Z,3.00
2023-04-09T13:39:37.457Z,3.57
2023-04-09T13:44:42.032Z,3.70
2023-04-09T13:49:43.828Z,3.80
2023-04-09T13:54:45.473Z,3.80
2023-04-09T13:59:47.017Z,3.70
2023-04-09T14:04:48.680Z,3.13
2023-04-09T14:09:51.212Z,3.10
2023-04-09T14:14:52.744Z,2.93
2023-04-09T14:19:54.330Z,3.33
2023-04-09T14:24:55.920Z,3.20
2023-04-09T14:29:57.527Z,2.83
2023-04-09T14:34:59.038Z,3.00
2023-04-09T14:40:00.750Z,3.23
2023-04-09T14:45:02.433Z,2.77
2023-04-09T14:50:04.158Z,3.10
2023-04-09T14:55:09.031Z,2.60
2023-04-09T15:00:12.186Z,2.87
2023-04-09T15:05:14.100Z,2.57
2023-04-09T15:10:15.936Z,2.50
2023-04-09T15:15:17.594Z,2.97
2023-04-09T15:20:19.296Z,3.00
2023-04-09T15:25:20.821Z,3.03
2023-04-09T15:30:22.415Z,2.60
2023-04-09T15:35:25.273Z,2.73
2023-04-09T15:40:28.662Z,2.80
2023-04-09T15:45:30.314Z,2.80
2023-04-09T15:50:31.961Z,2.70
2023-04-09T15:55:33.576Z,3.30
2023-04-09T16:00:35.938Z,2.87
2023-04-09T16:05:37.465Z,2.67
2023-04-09T16:10:39.147Z,2.50
2023-04-09T16:15:40.676Z,2.80
2023-04-09T16:20:42.323Z,2.93
2023-04-09T16:25:43.830Z,3.60
2023-04-09T16:30:45.441Z,3.80
2023-04-09T16:35:47.233Z,3.77
2023-04-09T16:40:48.964Z,2.73
2023-04-09T16:45:52.180Z,3.50
2023-04-09T16:50:53.973Z,2.83
2023-04-09T16:55:55.509Z,3.20
2023-04-09T17:00:57.598Z,2.57
2023-04-09T17:05:59.217Z,3.00
2023-04-09T17:11:03.690Z,2.60
2023-04-09T17:16:05.735Z,2.57
2023-04-09T17:21:07.353Z,2.90
2023-04-09T17:26:08.913Z,3.27
2023-04-09T17:31:15.901Z,2.90
2023-04-09T17:36:18.973Z,3.20
2023-04-09T17:41:20.815Z,2.50
2023-04-09T17:46:22.372Z,2.80
2023-04-09T17:51:23.924Z,2.60
2023-04-09T17:56:25.494Z,2.60
2023-04-09T18:01:27.346Z,2.73
2023-04-09T18:06:29.243Z,2.60
2023-04-09T18:11:30.871Z,2.83
2023-04-09T18:16:32.576Z,2.70
2023-04-09T18:21:37.782Z,2.90
2023-04-09T18:26:39.333Z,2.90
2023-04-09T18:31:40.941Z,3.73
2023-04-09T18:36:42.822Z,3.20
2023-04-09T18:41:44.430Z,3.37
2023-04-09T18:46:46.672Z,3.23
2023-04-09T18:51:48.335Z,3.20
2023-04-09T18:56:50.050Z,3.10
2023-04-09T19:01:51.775Z,3.30
2023-04-09T19:06:54.561Z,3.10
2023-04-09T19:11:57.744Z,2.97
2023-04-09T19:16:59.700Z,3.40
2023-04-09T19:22:01.733Z,3.10
2023-04-09T19:27:09.815Z,3.03
2023-04-09T19:32:13.308Z,3.83
2023-04-09T19:37:16.426Z,3.37
2023-04-09T19:42:17.983Z,3.23
2023-04-09T19:47:19.701Z,3.60
2023-04-09T19:52:21.753Z,3.97
2023-04-09T19:57:23.378Z,3.40
2023-04-09T20:02:25.436Z,3.77
2023-04-09T20:07:27.249Z,3.90
2023-04-09T20:12:29.519Z,3.83
2023-04-09T20:17:31.228Z,4.30
2023-04-09T20:22:32.893Z,4.40
2023-04-09T20:27:34.427Z,4.00
2023-04-09T20:32:37.621Z,4.23
2023-04-09T20:37:39.228Z,4.37
2023-04-09T20:42:41.644Z,4.00
2023-04-09T20:47:43.283Z,4.47
2023-04-09T20:52:45.116Z,4.37
2023-04-09T20:57:46.621Z,3.93
2023-04-09T21:02:48.479Z,3.80
2023-04-09T21:07:50.801Z,4.40
2023-04-09T21:12:52.691Z,4.37
2023-04-09T21:17:54.425Z,4.30
2023-04-09T21:22:56.224Z,3.73
2023-04-09T21:27:57.759Z,4.07
2023-04-09T21:33:03.778Z,4.13
2023-04-09T21:38:05.904Z,4.07
2023-04-09T21:43:09.003Z,4.30
2023-04-09T21:48:10.521Z,4.07
2023-04-09T21:53:13.750Z,4.10
2023-04-09T21:58:15.440Z,3.77
2023-04-09T22:03:17.264Z,4.03
2023-04-09T22:08:19.079Z,4.53
2023-04-09T22:13:20.761Z,4.40
2023-04-09T22:18:22.608Z,4.47
2023-04-09T22:23:24.206Z,4.87
2023-04-09T22:28:25.794Z,4.50
2023-04-09T22:33:27.448Z,5.07
2023-04-09T22:38:29.057Z,4.30
2023-04-09T22:43:30.879Z,4.20
2023-04-09T22:48:35.815Z,4.80
2023-04-09T22:53:39.884Z,4.43
2023-04-09T22:58:41.569Z,4.60
2023-04-09T23:03:43.279Z,4.60
2023-04-09T23:08:44.884Z,4.37
2023-04-09T23:13:46.452Z,5.00
2023-04-09T23:18:48.037Z,4.43
2023-04-09T23:23:49.691Z,5.00
2023-04-09T23:28:51.517Z,4.87
2023-04-09T23:33:53.435Z,4.60
2023-04-09T23:38:55.438Z,4.60
2023-04-09T23:43:57.142Z,5.20
2023-04-09T23:48:58.640Z,4.60
2023-04-09T23:54:01.388Z,5.30
2023-04-09T23:59:03.135Z,5.23
